Home

PKWA Terminal Aerodrome Forecast (TAF)small logo


TAF provided by NWS Guam
2014/10/02 12:27
TAF PKWA 021121Z 0212/0312 17011KT 6SM -RA SCT011 BKN025 OVC070 
     FM021800 17009KT P6SM VCSH SCT012 BKN050 BKN100

      



Site Map | Contact Us | Copyright © 2007 Atmospheric Technology Services Company. All rights reserved.